Chapman, Alabama
Current Conditions -  °F | °C
As of 11:56 AM on Wednesday 28 Jan 2015 (Local Time) from KPRN Reporting Station
Clear Clear  
Wind Chill: 53°   Ceiling: Unl
Heat Index: 53°   Visibility: 10mi
Dew Point: 29°   Wind: 5mph
Humidity: 40%   Direction: 330°NNW
Pressure: 30.26"   Gusts: NA
Location:  31.67°N, 86.71°W
Report Text: KPRN 281756Z AUTO 33004KT 10SM CLR 12/M02 A3026 RMK AO2 SLP248 T01171017 10117 21011 58008
Loading
Personal Weather Stations






























Interactive Weather Map New forecast layout! Learn more

10-Day Weather Forecast

Advertisements
Track Severe Weather on mobile